Time;durP1;ratioP1;P1;durP2;ratioP2;P2;SDS_P1;SDS_P2;PMS_P1;PMS_P2;Temp;Humidity;BMP_temperature;BMP_pressure;BME280_temperature;BME280_humidity;BME280_pressure;Samples;Min_cycle;Max_cycle;Signal;HPM_P1;HPM_P2
2023/07/13 00:00:16;;;;;;;;;;;26.70;59.50;;;;;;5039877;28;81969;-49
2023/07/13 00:02:42;;;;;;;;;;;26.70;59.50;;;;;;5035877;28;84492;-48
2023/07/13 00:05:07;;;;;;;;;;;26.70;59.60;;;;;;5037102;28;82986;-50
2023/07/13 00:07:33;;;;;;;;;;;26.60;59.60;;;;;;5036690;28;86170;-50
2023/07/13 00:09:59;;;;;;;;;;;26.60;59.70;;;;;;5038085;28;82898;-48
2023/07/13 00:12:27;;;;;;;;;;;26.60;59.60;;;;;;5037195;28;82054;-49
2023/07/13 00:14:53;;;;;;;;;;;26.60;59.70;;;;;;5039159;28;84197;-49
2023/07/13 00:17:18;;;;;;;;;;;26.60;59.60;;;;;;5035523;28;83230;-50
2023/07/13 00:19:44;;;;;;;;;;;26.60;59.50;;;;;;5042110;28;81844;-51
2023/07/13 00:22:09;;;;;;;;;;;26.60;59.90;;;;;;5032546;28;83045;-47
2023/07/13 00:24:35;;;;;;;;;;;26.60;59.60;;;;;;5039484;28;82097;-49
2023/07/13 00:27:01;;;;;;;;;;;26.60;59.70;;;;;;5036592;28;84251;-49
2023/07/13 00:29:27;;;;;;;;;;;26.60;59.70;;;;;;5037826;28;83688;-49
2023/07/13 00:31:52;;;;;;;;;;;26.50;59.70;;;;;;5037132;28;82085;-50
2023/07/13 00:34:18;;;;;;;;;;;26.50;59.60;;;;;;5037531;28;82447;-48
2023/07/13 00:36:43;;;;;;;;;;;26.50;59.60;;;;;;5037471;28;83441;-49
2023/07/13 00:39:09;;;;;;;;;;;26.50;59.80;;;;;;5038201;28;82033;-49
2023/07/13 00:41:36;;;;;;;;;;;26.40;59.70;;;;;;5039491;28;82828;-50
2023/07/13 00:44:02;;;;;;;;;;;26.40;59.60;;;;;;5038957;28;81970;-48
2023/07/13 00:46:29;;;;;;;;;;;26.40;59.70;;;;;;5034008;28;83915;-50
2023/07/13 00:48:57;;;;;;;;;;;26.40;59.60;;;;;;5031200;28;83031;-48
2023/07/13 00:51:28;;;;;;;;;;;26.30;59.70;;;;;;5038716;28;82048;-52
2023/07/13 00:53:55;;;;;;;;;;;26.40;59.70;;;;;;5036597;27;82975;-52
2023/07/13 00:56:21;;;;;;;;;;;26.30;59.80;;;;;;5036742;28;84451;-50
2023/07/13 00:58:47;;;;;;;;;;;26.30;59.70;;;;;;5038374;28;82073;-49
2023/07/13 01:01:12;;;;;;;;;;;26.30;59.70;;;;;;5036282;28;83064;-49
2023/07/13 01:03:40;;;;;;;;;;;26.30;59.70;;;;;;5036305;28;84444;-48
2023/07/13 01:06:06;;;;;;;;;;;26.30;59.70;;;;;;5039146;28;82531;-51
2023/07/13 01:08:31;;;;;;;;;;;26.30;59.80;;;;;;5035191;28;84362;-51
2023/07/13 01:10:58;;;;;;;;;;;26.30;59.80;;;;;;5039398;28;81279;-48
2023/07/13 01:13:24;;;;;;;;;;;26.20;59.90;;;;;;5036237;28;81974;-48
2023/07/13 01:15:50;;;;;;;;;;;26.20;59.90;;;;;;5037185;28;84398;-50
2023/07/13 01:18:18;;;;;;;;;;;26.20;59.80;;;;;;5034063;28;83083;-50
2023/07/13 01:20:57;;;;;;;;;;;26.10;59.80;;;;;;5036119;27;83448;-52
2023/07/13 01:23:24;;;;;;;;;;;26.10;59.90;;;;;;5031963;28;84007;-49
2023/07/13 01:25:50;;;;;;;;;;;26.10;59.80;;;;;;5040340;28;82123;-52
2023/07/13 01:28:16;;;;;;;;;;;26.10;59.80;;;;;;5036338;28;83021;-52
2023/07/13 01:30:45;;;;;;;;;;;26.10;59.80;;;;;;5036934;28;82074;-48
2023/07/13 01:33:11;;;;;;;;;;;26.10;59.80;;;;;;5036580;28;83950;-50
2023/07/13 01:35:36;;;;;;;;;;;26.10;59.80;;;;;;5036318;28;82139;-49
2023/07/13 01:38:02;;;;;;;;;;;26.10;59.90;;;;;;5038119;28;82072;-53
2023/07/13 01:40:28;;;;;;;;;;;26.10;59.70;;;;;;5034792;27;82162;-50
2023/07/13 01:42:54;;;;;;;;;;;26.10;59.80;;;;;;5037629;28;83120;-55
2023/07/13 01:45:19;;;;;;;;;;;26.10;59.80;;;;;;5035150;28;82604;-52
2023/07/13 01:47:45;;;;;;;;;;;26.00;59.70;;;;;;5038962;28;83756;-54
2023/07/13 01:50:10;;;;;;;;;;;26.00;59.80;;;;;;5035792;28;82084;-52
2023/07/13 01:52:36;;;;;;;;;;;26.00;59.90;;;;;;5037360;27;82552;-51
2023/07/13 01:55:02;;;;;;;;;;;26.00;60.00;;;;;;5036057;28;82909;-50
2023/07/13 01:57:27;;;;;;;;;;;26.00;59.90;;;;;;5036335;28;81988;-52
2023/07/13 01:59:53;;;;;;;;;;;26.00;59.80;;;;;;5037120;28;82222;-52
2023/07/13 02:02:19;;;;;;;;;;;26.00;59.80;;;;;;5035222;28;83421;-53
2023/07/13 02:04:45;;;;;;;;;;;25.90;59.80;;;;;;5034328;28;81794;-49
2023/07/13 02:07:11;;;;;;;;;;;26.00;59.90;;;;;;5039498;28;84489;-51
2023/07/13 02:09:36;;;;;;;;;;;25.90;59.80;;;;;;5034487;28;82020;-53
2023/07/13 02:12:02;;;;;;;;;;;25.90;59.70;;;;;;5037865;28;84005;-52
2023/07/13 02:14:28;;;;;;;;;;;25.90;59.80;;;;;;5033851;28;84810;-52
2023/07/13 02:16:53;;;;;;;;;;;25.90;59.70;;;;;;5037492;28;82577;-51
2023/07/13 02:19:19;;;;;;;;;;;25.90;59.80;;;;;;5034218;28;82926;-51
2023/07/13 02:21:44;;;;;;;;;;;25.90;59.90;;;;;;5036498;28;82967;-50
2023/07/13 02:24:14;;;;;;;;;;;25.90;59.80;;;;;;5036135;28;81302;-48
2023/07/13 02:26:40;;;;;;;;;;;25.80;59.80;;;;;;5035189;27;83529;-49
2023/07/13 02:29:05;;;;;;;;;;;25.80;59.80;;;;;;5039333;28;83190;-50
2023/07/13 02:31:31;;;;;;;;;;;25.80;60.00;;;;;;5034040;27;82995;-50
2023/07/13 02:33:56;;;;;;;;;;;25.80;59.80;;;;;;5035179;28;82786;-46
2023/07/13 02:36:22;;;;;;;;;;;25.80;59.80;;;;;;5034118;28;82163;-47
2023/07/13 02:38:49;;;;;;;;;;;25.80;59.80;;;;;;5037734;28;81972;-50
2023/07/13 02:41:14;;;;;;;;;;;25.80;59.60;;;;;;5033781;28;83024;-48
2023/07/13 02:43:40;;;;;;;;;;;25.80;59.70;;;;;;5037059;28;81972;-48
2023/07/13 02:46:08;;;;;;;;;;;25.80;59.80;;;;;;5034772;28;82357;-49
2023/07/13 02:48:34;;;;;;;;;;;25.80;59.70;;;;;;5035162;28;82566;-50
2023/07/13 02:50:59;;;;;;;;;;;25.70;59.70;;;;;;5038449;28;82084;-52
2023/07/13 02:53:25;;;;;;;;;;;25.80;59.80;;;;;;5035779;28;82385;-49
2023/07/13 02:55:50;;;;;;;;;;;25.70;59.80;;;;;;5034262;28;83438;-50
2023/07/13 02:58:19;;;;;;;;;;;25.70;59.90;;;;;;5036521;28;82562;-51
2023/07/13 03:00:46;;;;;;;;;;;25.60;59.70;;;;;;5033341;28;83709;-50
2023/07/13 03:03:12;;;;;;;;;;;25.70;59.70;;;;;;5036454;27;82120;-51
2023/07/13 03:05:40;;;;;;;;;;;25.60;59.60;;;;;;5033796;28;84113;-49
2023/07/13 03:08:06;;;;;;;;;;;25.60;59.70;;;;;;5035994;28;83103;-47
2023/07/13 03:10:31;;;;;;;;;;;25.60;59.70;;;;;;5034582;28;82080;-48
2023/07/13 03:12:57;;;;;;;;;;;25.60;59.80;;;;;;5038536;28;82345;-48
2023/07/13 03:15:22;;;;;;;;;;;25.50;59.80;;;;;;5035075;28;82187;-49
2023/07/13 03:17:48;;;;;;;;;;;25.60;60.40;;;;;;5030643;28;81990;-49
2023/07/13 03:20:14;;;;;;;;;;;25.60;59.70;;;;;;5033274;28;85505;-48
2023/07/13 03:22:39;;;;;;;;;;;25.50;59.70;;;;;;5034167;28;82066;-50
2023/07/13 03:25:05;;;;;;;;;;;25.50;59.80;;;;;;5035144;28;85394;-49
2023/07/13 03:27:30;;;;;;;;;;;25.50;59.60;;;;;;5033410;28;82761;-50
2023/07/13 03:29:56;;;;;;;;;;;25.50;59.70;;;;;;5036993;28;82173;-48
2023/07/13 03:32:21;;;;;;;;;;;25.50;59.70;;;;;;5033515;28;82688;-52
2023/07/13 03:34:47;;;;;;;;;;;25.50;59.70;;;;;;5036552;28;82789;-48
2023/07/13 03:37:12;;;;;;;;;;;25.40;59.70;;;;;;5036816;28;81572;-52
2023/07/13 03:39:38;;;;;;;;;;;25.40;59.60;;;;;;5033932;28;83015;-51
2023/07/13 03:42:03;;;;;;;;;;;25.40;59.70;;;;;;5035373;28;82075;-48
2023/07/13 03:44:29;;;;;;;;;;;25.40;59.80;;;;;;5034037;28;82925;-48
2023/07/13 03:46:54;;;;;;;;;;;25.40;59.70;;;;;;5034727;28;82988;-51
2023/07/13 03:49:20;;;;;;;;;;;25.40;59.70;;;;;;5035643;28;82202;-51
2023/07/13 03:51:46;;;;;;;;;;;25.40;59.80;;;;;;5034339;28;82527;-49
2023/07/13 03:54:11;;;;;;;;;;;25.30;59.70;;;;;;5035501;28;83444;-48
2023/07/13 03:56:37;;;;;;;;;;;25.30;59.70;;;;;;5036054;28;82089;-48
2023/07/13 03:59:02;;;;;;;;;;;25.30;59.60;;;;;;5036150;28;83027;-50
2023/07/13 04:01:28;;;;;;;;;;;25.30;59.70;;;;;;5032958;28;81326;-51
2023/07/13 04:03:53;;;;;;;;;;;25.30;59.70;;;;;;5034461;28;82629;-48
2023/07/13 04:06:24;;;;;;;;;;;25.30;59.70;;;;;;5033348;28;82823;-48
2023/07/13 04:08:50;;;;;;;;;;;25.30;59.70;;;;;;5034544;28;83313;-49
2023/07/13 04:11:16;;;;;;;;;;;25.30;59.80;;;;;;5034523;28;83471;-49
2023/07/13 04:13:42;;;;;;;;;;;25.20;59.70;;;;;;5033968;28;83155;-49
2023/07/13 04:16:07;;;;;;;;;;;25.20;59.70;;;;;;5037861;28;82089;-50
2023/07/13 04:18:33;;;;;;;;;;;25.20;59.70;;;;;;5033164;28;83169;-49
2023/07/13 04:20:58;;;;;;;;;;;25.20;59.80;;;;;;5032812;28;82375;-48
2023/07/13 04:23:24;;;;;;;;;;;25.20;59.70;;;;;;5036100;28;82013;-51
2023/07/13 04:25:52;;;;;;;;;;;25.20;59.70;;;;;;5033207;28;82576;-50
2023/07/13 04:28:18;;;;;;;;;;;25.20;59.80;;;;;;5030843;28;81964;-52
2023/07/13 04:30:44;;;;;;;;;;;25.20;59.80;;;;;;5039203;28;83127;-47
2023/07/13 04:33:09;;;;;;;;;;;25.20;59.80;;;;;;5034454;28;84080;-52
2023/07/13 04:35:35;;;;;;;;;;;25.20;59.80;;;;;;5037507;28;82113;-50
2023/07/13 04:38:02;;;;;;;;;;;25.20;59.80;;;;;;5040693;28;82430;-49
2023/07/13 04:40:28;;;;;;;;;;;25.20;59.80;;;;;;5038149;28;82053;-50
2023/07/13 04:42:53;;;;;;;;;;;25.10;59.80;;;;;;5037133;27;82311;-48
2023/07/13 04:45:19;;;;;;;;;;;25.10;59.80;;;;;;5038567;28;83168;-48
2023/07/13 04:47:45;;;;;;;;;;;25.10;59.80;;;;;;5036613;28;82098;-48
2023/07/13 04:50:12;;;;;;;;;;;25.10;59.80;;;;;;5037594;28;82267;-49
2023/07/13 04:52:38;;;;;;;;;;;25.10;59.80;;;;;;5031885;28;82398;-50
2023/07/13 04:55:03;;;;;;;;;;;25.10;59.80;;;;;;5039184;28;82115;-49
2023/07/13 04:57:29;;;;;;;;;;;25.10;59.80;;;;;;5035833;28;82650;-51
2023/07/13 04:59:54;;;;;;;;;;;25.00;59.80;;;;;;5041003;28;82696;-49
2023/07/13 05:02:21;;;;;;;;;;;25.00;59.90;;;;;;5036950;28;82434;-51
2023/07/13 05:04:49;;;;;;;;;;;25.00;60.00;;;;;;5035538;28;84920;-51
2023/07/13 05:07:15;;;;;;;;;;;25.00;60.00;;;;;;5036880;28;82011;-49
2023/07/13 05:09:40;;;;;;;;;;;25.00;60.00;;;;;;5037756;28;83845;-50
2023/07/13 05:12:07;;;;;;;;;;;25.00;60.10;;;;;;5036074;28;82943;-49
2023/07/13 05:14:32;;;;;;;;;;;25.00;60.10;;;;;;5038992;28;81119;-53
2023/07/13 05:16:58;;;;;;;;;;;25.00;60.10;;;;;;5035275;28;82003;-50
2023/07/13 05:19:23;;;;;;;;;;;25.00;60.10;;;;;;5038238;28;82834;-52
2023/07/13 05:21:49;;;;;;;;;;;25.00;60.10;;;;;;5037700;28;82974;-49
2023/07/13 05:24:14;;;;;;;;;;;25.00;60.10;;;;;;5038357;28;83026;-50
2023/07/13 05:26:40;;;;;;;;;;;25.00;60.10;;;;;;5035960;28;82145;-52
2023/07/13 05:29:05;;;;;;;;;;;25.00;60.20;;;;;;5037593;28;82337;-49
2023/07/13 05:31:31;;;;;;;;;;;25.00;60.20;;;;;;5036508;28;83244;-50
2023/07/13 05:33:56;;;;;;;;;;;25.00;60.20;;;;;;5036807;28;82116;-50
2023/07/13 05:36:22;;;;;;;;;;;25.00;60.30;;;;;;5036636;28;82037;-50
2023/07/13 05:38:47;;;;;;;;;;;25.00;60.30;;;;;;5037945;28;82497;-48
2023/07/13 05:41:13;;;;;;;;;;;25.00;60.30;;;;;;5035920;28;82340;-48
2023/07/13 05:43:38;;;;;;;;;;;25.00;60.40;;;;;;5040704;28;81987;-53
2023/07/13 05:46:04;;;;;;;;;;;25.00;60.30;;;;;;5034662;28;83058;-51
2023/07/13 05:48:29;;;;;;;;;;;25.00;60.40;;;;;;5038641;28;83536;-48
2023/07/13 05:50:55;;;;;;;;;;;25.00;60.30;;;;;;5033937;28;83108;-48
2023/07/13 05:53:20;;;;;;;;;;;25.00;60.50;;;;;;5038422;28;82069;-51
2023/07/13 05:55:52;;;;;;;;;;;25.00;60.50;;;;;;5035798;28;82569;-47
2023/07/13 05:58:19;;;;;;;;;;;25.00;60.40;;;;;;5036132;28;84151;-48
2023/07/13 06:00:44;;;;;;;;;;;25.00;60.50;;;;;;5036682;28;82281;-49
2023/07/13 06:03:10;;;;;;;;;;;25.00;60.60;;;;;;5037203;27;82476;-50
2023/07/13 06:05:36;;;;;;;;;;;25.00;60.50;;;;;;5035501;28;82604;-49
2023/07/13 06:08:02;;;;;;;;;;;25.00;60.50;;;;;;5035274;27;82459;-49
2023/07/13 06:10:27;;;;;;;;;;;25.00;60.60;;;;;;5037034;28;83835;-48
2023/07/13 06:12:53;;;;;;;;;;;25.00;60.70;;;;;;5032894;28;82098;-50
2023/07/13 06:15:19;;;;;;;;;;;25.00;60.60;;;;;;5038264;28;82578;-50
2023/07/13 06:17:45;;;;;;;;;;;25.00;60.70;;;;;;5034553;28;83066;-51
2023/07/13 06:20:10;;;;;;;;;;;25.00;60.70;;;;;;5035067;28;82177;-47
2023/07/13 06:22:36;;;;;;;;;;;25.00;60.70;;;;;;5037285;27;82597;-52
2023/07/13 06:25:01;;;;;;;;;;;25.00;60.80;;;;;;5038313;28;83520;-49
2023/07/13 06:27:27;;;;;;;;;;;25.00;60.80;;;;;;5036686;27;82443;-53
2023/07/13 06:29:52;;;;;;;;;;;25.00;60.80;;;;;;5035757;28;82858;-51
2023/07/13 06:32:18;;;;;;;;;;;25.00;60.80;;;;;;5035549;28;82599;-51
2023/07/13 06:34:43;;;;;;;;;;;25.00;60.80;;;;;;5035315;28;83059;-50
2023/07/13 06:37:09;;;;;;;;;;;25.00;60.80;;;;;;5034362;28;83092;-51
2023/07/13 06:39:35;;;;;;;;;;;25.00;60.80;;;;;;5037747;28;82096;-49
2023/07/13 06:42:01;;;;;;;;;;;25.00;60.80;;;;;;5034155;27;82479;-49
2023/07/13 06:44:26;;;;;;;;;;;25.00;60.90;;;;;;5037703;28;83550;-53
2023/07/13 06:46:52;;;;;;;;;;;25.00;60.90;;;;;;5037171;28;82191;-50
2023/07/13 06:49:17;;;;;;;;;;;25.00;61.00;;;;;;5035912;28;82958;-51
2023/07/13 06:51:42;;;;;;;;;;;25.00;61.00;;;;;;5035266;28;82137;-53
2023/07/13 06:54:08;;;;;;;;;;;25.00;61.00;;;;;;5036565;28;82002;-51
2023/07/13 06:56:34;;;;;;;;;;;25.00;61.00;;;;;;5035379;28;83045;-52
2023/07/13 06:58:59;;;;;;;;;;;25.00;61.10;;;;;;5032059;28;83025;-54
2023/07/13 07:01:25;;;;;;;;;;;25.00;61.20;;;;;;5035535;27;83371;-50
2023/07/13 07:03:50;;;;;;;;;;;25.00;61.10;;;;;;5036117;28;84319;-49
2023/07/13 07:06:17;;;;;;;;;;;25.00;61.20;;;;;;5034074;28;82146;-50
2023/07/13 07:08:43;;;;;;;;;;;25.00;60.70;;;;;;5039732;28;81944;-48
2023/07/13 07:11:12;;;;;;;;;;;25.00;61.20;;;;;;5034115;28;82480;-49
2023/07/13 07:13:37;;;;;;;;;;;25.00;61.20;;;;;;5030317;28;82055;-47
2023/07/13 07:16:03;;;;;;;;;;;25.00;61.30;;;;;;5037294;28;82742;-51
2023/07/13 07:18:28;;;;;;;;;;;25.00;61.30;;;;;;5034723;28;82038;-50
2023/07/13 07:20:54;;;;;;;;;;;25.00;61.30;;;;;;5033258;27;82466;-46
2023/07/13 07:23:20;;;;;;;;;;;25.00;61.40;;;;;;5035154;28;84104;-47
2023/07/13 07:25:45;;;;;;;;;;;25.00;61.40;;;;;;5035613;28;82368;-50
2023/07/13 07:28:11;;;;;;;;;;;25.00;61.40;;;;;;5034944;28;82383;-49
2023/07/13 07:30:37;;;;;;;;;;;25.00;61.50;;;;;;5038380;28;83701;-49
2023/07/13 07:33:03;;;;;;;;;;;25.00;61.50;;;;;;5034146;28;84096;-49
2023/07/13 07:35:28;;;;;;;;;;;25.00;61.50;;;;;;5035015;28;82775;-49
2023/07/13 07:37:54;;;;;;;;;;;25.00;61.50;;;;;;5033655;28;82172;-50
2023/07/13 07:40:19;;;;;;;;;;;25.00;62.20;;;;;;5037663;28;82571;-52
2023/07/13 07:42:45;;;;;;;;;;;25.00;61.60;;;;;;5033088;28;83044;-49
2023/07/13 07:45:13;;;;;;;;;;;25.00;61.60;;;;;;5036849;28;82110;-49
2023/07/13 07:47:39;;;;;;;;;;;25.00;61.60;;;;;;5033654;28;82895;-48
2023/07/13 07:50:05;;;;;;;;;;;25.00;61.60;;;;;;5034159;28;83366;-49
2023/07/13 07:52:30;;;;;;;;;;;25.10;61.70;;;;;;5038019;28;82216;-48
2023/07/13 07:54:56;;;;;;;;;;;25.00;61.60;;;;;;5035233;28;82205;-52
2023/07/13 07:57:21;;;;;;;;;;;25.10;61.70;;;;;;5034487;28;82051;-48
2023/07/13 07:59:48;;;;;;;;;;;25.00;61.70;;;;;;5035837;28;82413;-48
2023/07/13 08:02:13;;;;;;;;;;;25.10;61.80;;;;;;5033374;27;82887;-49
2023/07/13 08:04:39;;;;;;;;;;;25.10;61.70;;;;;;5040424;28;81501;-48
2023/07/13 08:07:05;;;;;;;;;;;25.10;61.70;;;;;;5036143;28;81936;-51
2023/07/13 08:09:30;;;;;;;;;;;25.10;61.70;;;;;;5032327;28;83041;-48
2023/07/13 08:11:56;;;;;;;;;;;25.10;61.80;;;;;;5042300;28;83080;-48
2023/07/13 08:14:21;;;;;;;;;;;25.10;61.80;;;;;;5035324;28;85208;-48
2023/07/13 08:16:47;;;;;;;;;;;25.10;61.70;;;;;;5039329;28;82120;-49
2023/07/13 08:19:12;;;;;;;;;;;25.10;61.80;;;;;;5037853;28;81772;-51
2023/07/13 08:21:38;;;;;;;;;;;25.10;61.80;;;;;;5031616;28;83387;-51
2023/07/13 08:24:03;;;;;;;;;;;25.10;61.80;;;;;;5037897;28;82897;-50
2023/07/13 08:26:29;;;;;;;;;;;25.10;61.80;;;;;;5038314;28;82509;-48
2023/07/13 08:28:54;;;;;;;;;;;25.10;61.80;;;;;;5037526;28;82546;-49
2023/07/13 08:31:20;;;;;;;;;;;25.10;61.80;;;;;;5038824;28;82128;-49
2023/07/13 08:33:45;;;;;;;;;;;25.10;61.80;;;;;;5039274;28;82490;-48
2023/07/13 08:36:11;;;;;;;;;;;25.20;61.90;;;;;;5035651;28;84904;-47
2023/07/13 08:38:36;;;;;;;;;;;25.10;61.80;;;;;;5039694;28;83409;-50
2023/07/13 08:41:09;;;;;;;;;;;25.20;61.80;;;;;;5035616;28;84042;-51
2023/07/13 08:43:35;;;;;;;;;;;25.20;61.80;;;;;;5038513;28;82498;-48
2023/07/13 08:46:10;;;;;;;;;;;25.20;61.90;;;;;;5037671;28;82406;-49
2023/07/13 08:48:38;;;;;;;;;;;25.20;61.90;;;;;;5036264;28;83039;-48
2023/07/13 08:51:21;;;;;;;;;;;25.20;61.80;;;;;;5036341;28;82049;-51
2023/07/13 08:53:48;;;;;;;;;;;25.20;61.90;;;;;;5038637;28;83353;-52
2023/07/13 08:56:18;;;;;;;;;;;25.20;61.90;;;;;;5038895;28;83038;-47
2023/07/13 08:58:44;;;;;;;;;;;25.20;61.90;;;;;;5032260;28;82679;-53
2023/07/13 09:01:24;;;;;;;;;;;25.30;61.90;;;;;;5038178;28;84625;-51
2023/07/13 09:03:59;;;;;;;;;;;25.20;61.80;;;;;;5038451;28;82151;-48
2023/07/13 09:06:30;;;;;;;;;;;25.30;61.80;;;;;;5031316;28;83926;-48
2023/07/13 09:09:01;;;;;;;;;;;25.30;61.90;;;;;;5037020;28;83185;-48
2023/07/13 09:11:42;;;;;;;;;;;25.30;61.90;;;;;;5036793;28;82068;-50
2023/07/13 09:14:27;;;;;;;;;;;25.30;61.80;;;;;;5033520;27;82409;-48
2023/07/13 09:16:53;;;;;;;;;;;25.40;61.90;;;;;;5031599;28;82119;-48
2023/07/13 09:19:26;;;;;;;;;;;25.40;61.90;;;;;;5042088;28;81277;-48
2023/07/13 09:21:52;;;;;;;;;;;25.40;61.90;;;;;;5036013;28;82125;-52
2023/07/13 09:24:38;;;;;;;;;;;25.40;61.80;;;;;;5037085;28;82129;-49
2023/07/13 09:27:24;;;;;;;;;;;25.40;61.80;;;;;;5032781;28;82869;-52
2023/07/13 09:29:57;;;;;;;;;;;25.40;61.80;;;;;;5032022;28;83008;-50
2023/07/13 09:32:24;;;;;;;;;;;25.40;61.80;;;;;;5037256;28;82028;-48
2023/07/13 09:34:54;;;;;;;;;;;25.40;61.80;;;;;;5037358;28;82828;-51
2023/07/13 09:37:24;;;;;;;;;;;25.40;61.80;;;;;;5034142;28;84538;-49
2023/07/13 09:39:50;;;;;;;;;;;25.50;61.80;;;;;;5031145;28;82490;-50
2023/07/13 09:42:17;;;;;;;;;;;25.50;61.80;;;;;;5040614;28;82816;-49
2023/07/13 09:44:56;;;;;;;;;;;25.50;61.80;;;;;;5036563;28;81358;-52
2023/07/13 09:47:26;;;;;;;;;;;25.50;61.80;;;;;;5035722;27;82007;-48
2023/07/13 09:50:00;;;;;;;;;;;25.50;61.80;;;;;;5031116;28;82715;-50
2023/07/13 09:52:27;;;;;;;;;;;25.50;61.80;;;;;;5035461;28;82999;-50
2023/07/13 09:54:58;;;;;;;;;;;25.60;61.90;;;;;;5036844;28;84836;-48
2023/07/13 09:57:25;;;;;;;;;;;25.60;61.90;;;;;;5035491;28;82755;-49
2023/07/13 09:59:52;;;;;;;;;;;25.60;61.80;;;;;;5038382;28;82256;-48
2023/07/13 10:02:33;;;;;;;;;;;25.60;61.80;;;;;;5031063;28;82640;-48
2023/07/13 10:05:22;;;;;;;;;;;25.60;61.80;;;;;;5036744;28;86300;-51
2023/07/13 10:07:47;;;;;;;;;;;25.60;61.80;;;;;;5033034;28;82959;-50
2023/07/13 10:10:18;;;;;;;;;;;25.60;61.80;;;;;;5037236;28;82228;-48
2023/07/13 10:12:44;;;;;;;;;;;25.70;61.80;;;;;;5034803;28;82026;-48
2023/07/13 10:15:23;;;;;;;;;;;25.70;61.80;;;;;;5038269;28;83748;-49
2023/07/13 10:17:49;;;;;;;;;;;25.70;61.80;;;;;;5035636;28;84104;-51
2023/07/13 10:20:15;;;;;;;;;;;25.70;61.70;;;;;;5035459;28;82058;-48
2023/07/13 10:22:53;;;;;;;;;;;25.70;61.70;;;;;;5036927;28;82132;-48
2023/07/13 10:25:23;;;;;;;;;;;25.80;61.80;;;;;;5034063;27;83098;-52
2023/07/13 10:28:09;;;;;;;;;;;25.80;61.80;;;;;;5036240;27;82789;-49
2023/07/13 10:30:38;;;;;;;;;;;25.80;61.80;;;;;;5021991;28;83188;-47
2023/07/13 10:33:10;;;;;;;;;;;25.80;61.80;;;;;;5036382;28;82155;-48
2023/07/13 10:35:37;;;;;;;;;;;25.80;61.70;;;;;;5037962;28;82437;-47
2023/07/13 10:38:14;;;;;;;;;;;25.80;61.70;;;;;;5033878;28;82360;-52
2023/07/13 10:40:42;;;;;;;;;;;25.90;61.80;;;;;;5032639;28;82109;-49
2023/07/13 10:43:19;;;;;;;;;;;25.90;61.80;;;;;;5035155;27;83856;-51
2023/07/13 10:45:48;;;;;;;;;;;25.90;61.80;;;;;;5038014;28;83031;-51
2023/07/13 10:48:14;;;;;;;;;;;25.90;61.70;;;;;;5037462;28;82013;-50
2023/07/13 10:50:42;;;;;;;;;;;25.90;61.70;;;;;;5036542;28;84315;-48
2023/07/13 10:53:21;;;;;;;;;;;26.00;61.80;;;;;;5033821;28;82083;-50
2023/07/13 10:55:53;;;;;;;;;;;26.00;61.70;;;;;;5037489;28;84419;-52
2023/07/13 10:58:21;;;;;;;;;;;26.00;61.80;;;;;;5034602;28;84556;-51
2023/07/13 11:00:57;;;;;;;;;;;26.00;61.70;;;;;;5036242;28;81262;-51
2023/07/13 11:03:23;;;;;;;;;;;26.00;61.70;;;;;;5037355;28;81966;-51
2023/07/13 11:05:51;;;;;;;;;;;26.10;61.80;;;;;;5033562;28;82964;-50
2023/07/13 11:08:21;;;;;;;;;;;26.10;61.80;;;;;;5032635;28;82993;-52
2023/07/13 11:10:49;;;;;;;;;;;26.10;61.70;;;;;;5037223;28;83379;-50
2023/07/13 11:13:33;;;;;;;;;;;26.10;61.70;;;;;;5035137;28;82121;-54
2023/07/13 11:15:58;;;;;;;;;;;26.10;61.70;;;;;;5031616;28;82202;-51
2023/07/13 11:18:25;;;;;;;;;;;26.20;61.80;;;;;;5036008;28;82977;-54
2023/07/13 11:20:50;;;;;;;;;;;26.20;61.80;;;;;;5034676;28;82240;-50
2023/07/13 11:23:17;;;;;;;;;;;26.20;61.70;;;;;;5034907;27;82261;-49
2023/07/13 11:25:43;;;;;;;;;;;26.20;61.80;;;;;;5036133;28;83865;-52
2023/07/13 11:28:11;;;;;;;;;;;26.20;61.70;;;;;;5034847;28;82086;-50
2023/07/13 11:30:43;;;;;;;;;;;26.30;61.80;;;;;;5037303;28;82364;-49
2023/07/13 11:33:27;;;;;;;;;;;26.30;61.80;;;;;;5032476;28;85545;-52
2023/07/13 11:35:53;;;;;;;;;;;26.30;61.80;;;;;;5033499;28;83400;-53
2023/07/13 11:38:18;;;;;;;;;;;26.30;61.70;;;;;;5039544;27;82226;-51
2023/07/13 11:40:45;;;;;;;;;;;26.30;61.70;;;;;;5037280;28;82111;-48
2023/07/13 11:43:13;;;;;;;;;;;26.40;61.70;;;;;;5039978;28;82841;-49
2023/07/13 11:45:38;;;;;;;;;;;26.40;61.70;;;;;;5038035;28;83021;-49
2023/07/13 11:48:04;;;;;;;;;;;26.40;61.70;;;;;;5039214;28;82128;-48
2023/07/13 11:50:30;;;;;;;;;;;26.40;61.80;;;;;;5039340;28;82198;-48
2023/07/13 11:52:58;;;;;;;;;;;26.50;61.80;;;;;;5036839;28;84983;-48
2023/07/13 11:55:24;;;;;;;;;;;26.50;61.80;;;;;;5042391;28;82056;-49
2023/07/13 11:57:52;;;;;;;;;;;26.50;61.80;;;;;;5036202;28;85459;-51
2023/07/13 12:00:18;;;;;;;;;;;26.50;61.80;;;;;;5040425;28;81919;-49
2023/07/13 12:02:45;;;;;;;;;;;26.50;61.70;;;;;;5036786;28;83888;-49
2023/07/13 12:05:14;;;;;;;;;;;26.60;61.80;;;;;;5039334;28;83049;-48
2023/07/13 12:07:40;;;;;;;;;;;26.60;61.80;;;;;;5037051;28;82069;-51
2023/07/13 12:10:09;;;;;;;;;;;26.60;61.70;;;;;;5038596;28;82360;-49
2023/07/13 12:12:35;;;;;;;;;;;26.60;61.70;;;;;;5037200;28;83128;-49
2023/07/13 12:15:00;;;;;;;;;;;26.60;61.70;;;;;;5040144;28;81337;-48
2023/07/13 12:17:26;;;;;;;;;;;26.60;61.70;;;;;;5039652;28;81922;-51
2023/07/13 12:19:52;;;;;;;;;;;26.70;61.80;;;;;;5039870;28;82004;-48
2023/07/13 12:22:19;;;;;;;;;;;26.60;61.70;;;;;;5029537;28;83685;-49
2023/07/13 12:24:45;;;;;;;;;;;26.70;61.70;;;;;;5039261;28;82992;-49
2023/07/13 12:27:17;;;;;;;;;;;26.70;61.70;;;;;;5037373;28;82072;-50
2023/07/13 12:29:48;;;;;;;;;;;26.70;61.70;;;;;;5038166;27;82052;-52
2023/07/13 12:32:17;;;;;;;;;;;26.80;61.70;;;;;;5040008;28;83166;-49
2023/07/13 12:34:52;;;;;;;;;;;26.80;61.70;;;;;;5036307;28;81997;-48
2023/07/13 12:37:17;;;;;;;;;;;26.80;61.70;;;;;;5039050;28;84519;-51
2023/07/13 12:39:46;;;;;;;;;;;26.90;61.80;;;;;;5038650;28;81336;-49
2023/07/13 12:42:17;;;;;;;;;;;26.80;61.70;;;;;;5037417;27;82015;-50
2023/07/13 12:44:43;;;;;;;;;;;26.90;61.70;;;;;;5039729;28;82868;-49
2023/07/13 12:47:12;;;;;;;;;;;26.90;61.70;;;;;;5031500;28;82988;-50
2023/07/13 12:49:41;;;;;;;;;;;26.90;61.70;;;;;;5037905;28;82736;-48
2023/07/13 12:52:14;;;;;;;;;;;27.00;61.60;;;;;;5037112;28;83371;-50
2023/07/13 12:54:39;;;;;;;;;;;27.00;61.60;;;;;;5037929;28;82160;-48
2023/07/13 12:57:08;;;;;;;;;;;27.00;61.60;;;;;;5036493;27;82590;-50
2023/07/13 12:59:36;;;;;;;;;;;27.00;61.60;;;;;;5042107;28;82032;-48
2023/07/13 13:02:02;;;;;;;;;;;27.10;61.70;;;;;;5036306;28;83990;-51
2023/07/13 13:04:28;;;;;;;;;;;27.10;61.60;;;;;;5038874;28;82075;-48
2023/07/13 13:07:01;;;;;;;;;;;27.20;61.70;;;;;;5037244;28;82072;-48
2023/07/13 13:09:26;;;;;;;;;;;27.20;61.70;;;;;;5035895;28;84094;-50
2023/07/13 13:11:52;;;;;;;;;;;27.20;61.70;;;;;;5036229;28;85423;-48
2023/07/13 13:14:17;;;;;;;;;;;27.20;61.70;;;;;;5035861;28;82226;-48
2023/07/13 13:16:53;;;;;;;;;;;27.20;61.70;;;;;;5039138;28;82639;-49
2023/07/13 13:19:21;;;;;;;;;;;27.30;61.80;;;;;;5033975;28;83059;-49
2023/07/13 13:21:47;;;;;;;;;;;27.30;61.80;;;;;;5039743;28;82121;-49
2023/07/13 13:24:13;;;;;;;;;;;27.30;61.80;;;;;;5036187;28;83062;-47
2023/07/13 13:26:40;;;;;;;;;;;27.40;61.80;;;;;;5036512;28;82604;-49
2023/07/13 13:29:24;;;;;;;;;;;27.40;61.80;;;;;;5038794;28;84049;-47
2023/07/13 13:31:50;;;;;;;;;;;27.40;61.80;;;;;;5035746;28;83153;-48
2023/07/13 13:34:17;;;;;;;;;;;27.50;61.80;;;;;;5036557;28;81911;-47
2023/07/13 13:36:43;;;;;;;;;;;27.50;61.80;;;;;;5037660;28;82969;-46
2023/07/13 13:39:28;;;;;;;;;;;27.50;61.70;;;;;;5035996;28;82947;-45
2023/07/13 13:41:54;;;;;;;;;;;27.50;61.80;;;;;;5035574;28;81992;-46
2023/07/13 13:44:20;;;;;;;;;;;27.60;61.80;;;;;;5038885;28;81984;-46
2023/07/13 13:46:47;;;;;;;;;;;27.60;61.80;;;;;;5038362;28;82062;-48
2023/07/13 13:49:17;;;;;;;;;;;27.60;61.70;;;;;;5035432;27;82338;-46
2023/07/13 13:51:43;;;;;;;;;;;27.70;61.90;;;;;;5031972;28;82948;-46
2023/07/13 13:54:13;;;;;;;;;;;27.70;61.70;;;;;;5034869;28;81222;-45
2023/07/13 13:56:41;;;;;;;;;;;27.70;61.90;;;;;;5036643;27;83388;-45
2023/07/13 13:59:08;;;;;;;;;;;27.70;61.80;;;;;;5037138;28;82812;-46
2023/07/13 14:01:34;;;;;;;;;;;27.80;61.90;;;;;;5033504;28;82898;-48
2023/07/13 14:03:59;;;;;;;;;;;27.80;61.70;;;;;;5038251;28;83114;-47
2023/07/13 14:06:25;;;;;;;;;;;27.90;62.00;;;;;;5038978;28;83510;-49
2023/07/13 14:08:50;;;;;;;;;;;27.90;62.30;;;;;;5026706;27;82537;-58
2023/07/13 14:11:17;;;;;;;;;;;28.20;56.70;;;;;;5034347;28;83515;-47
2023/07/13 14:13:46;;;;;;;;;;;28.70;51.80;;;;;;5034086;28;82307;-47
2023/07/13 14:16:17;;;;;;;;;;;28.70;55.00;;;;;;5036362;28;82448;-51